Time,TemperatureF,DewpointF,PressureIn,WindDirection,WindDirectionDegrees,WindSpeedMPH,WindSpeedGustMPH,Humidity,HourlyPrecipIn,Conditions,Clouds,dailyrainin,SoftwareType,DateUTC
2013-07-05 00:00:00,72.5,68.4,30.20,North,0,4.0,6.0,87,0.00,,,0.00,meteohub,2013-07-05 04:00:00,
2013-07-05 00:01:00,72.5,68.4,30.20,NW,315,4.0,6.0,87,0.00,,,0.00,meteohub,2013-07-05 04:01:00,
2013-07-05 00:02:00,72.5,68.4,30.20,NW,315,4.0,6.0,87,0.00,,,0.00,meteohub,2013-07-05 04:02:00,
2013-07-05 00:04:00,72.3,68.2,30.19,WNW,293,5.0,6.0,87,0.00,,,0.00,meteohub,2013-07-05 04:04:00,
2013-07-05 00:05:00,72.3,68.2,30.19,NW,315,5.0,6.0,87,0.00,,,0.00,meteohub,2013-07-05 04:05:00,
2013-07-05 00:10:00,72.3,68.2,30.19,NW,315,5.0,5.0,87,0.00,,,0.00,meteohub,2013-07-05 04:10:00,
2013-07-05 00:15:00,72.5,68.4,30.19,NE,45,0.0,5.0,87,0.00,,,0.00,meteohub,2013-07-05 04:15:00,
2013-07-05 00:20:00,72.3,68.2,30.19,NNE,23,2.0,5.0,87,0.00,,,0.00,meteohub,2013-07-05 04:20:00,
2013-07-05 00:26:00,72.3,68.2,30.20,NE,45,4.0,5.0,87,0.00,,,0.00,meteohub,2013-07-05 04:26:00,
2013-07-05 00:31:00,72.1,68.0,30.20,ENE,68,5.0,5.0,87,0.00,,,0.00,meteohub,2013-07-05 04:31:00,
2013-07-05 00:36:00,72.0,67.8,30.20,North,0,4.0,5.0,87,0.00,,,0.00,meteohub,2013-07-05 04:36:00,
2013-07-05 00:41:00,72.1,68.4,30.20,South,180,8.0,8.0,88,0.00,,,0.00,meteohub,2013-07-05 04:41:00,
2013-07-05 00:46:00,72.1,68.0,30.20,NNE,23,5.0,8.0,87,0.00,,,0.00,meteohub,2013-07-05 04:46:00,
2013-07-05 00:52:00,72.0,67.8,30.20,NNW,338,6.0,8.0,87,0.00,,,0.00,meteohub,2013-07-05 04:52:00,
2013-07-05 00:57:00,71.6,67.5,30.20,NW,315,7.0,8.0,87,0.00,,,0.00,meteohub,2013-07-05 04:57:00,
2013-07-05 01:02:00,71.8,67.6,30.20,NNW,338,9.0,9.0,87,0.00,,,0.00,meteohub,2013-07-05 05:02:00,
2013-07-05 01:07:00,71.4,67.6,30.19,NW,315,9.0,9.0,88,0.00,,,0.00,meteohub,2013-07-05 05:07:00,
2013-07-05 01:12:00,71.6,67.8,30.19,WNW,293,10.0,10.0,88,0.00,,,0.00,meteohub,2013-07-05 05:12:00,
2013-07-05 01:17:00,71.8,68.0,30.19,NW,315,11.0,11.0,88,0.00,,,0.00,meteohub,2013-07-05 05:17:00,
2013-07-05 01:22:00,71.8,68.0,30.19,NW,315,10.0,12.0,88,0.00,,,0.00,meteohub,2013-07-05 05:22:00,
2013-07-05 01:27:00,72.0,68.2,30.19,NW,315,11.0,12.0,88,0.00,,,0.00,meteohub,2013-07-05 05:27:00,
2013-07-05 01:32:00,72.0,68.2,30.19,NW,315,11.0,12.0,88,0.00,,,0.00,meteohub,2013-07-05 05:32:00,
2013-07-05 01:37:00,72.0,68.2,30.19,NNW,338,9.0,12.0,88,0.00,,,0.00,meteohub,2013-07-05 05:37:00,
2013-07-05 01:42:00,72.0,68.2,30.19,NW,315,11.0,12.0,88,0.00,,,0.00,meteohub,2013-07-05 05:42:00,
2013-07-05 01:47:00,72.0,68.2,30.19,WNW,293,10.0,11.0,88,0.00,,,0.00,meteohub,2013-07-05 05:47:00,
2013-07-05 01:52:00,72.1,68.4,30.19,NNW,338,13.0,13.0,88,0.00,,,0.00,meteohub,2013-07-05 05:52:00,
2013-07-05 01:57:00,72.1,68.4,30.19,NW,315,9.0,11.0,88,0.00,,,0.00,meteohub,2013-07-05 05:57:00,
2013-07-05 02:03:00,72.1,68.4,30.19,West,270,9.0,13.0,88,0.00,,,0.00,meteohub,2013-07-05 06:03:00,
2013-07-05 02:08:00,72.1,68.4,30.19,NNW,338,6.0,13.0,88,0.00,,,0.00,meteohub,2013-07-05 06:08:00,
2013-07-05 02:13:00,72.1,68.4,30.19,NW,315,11.0,11.0,88,0.00,,,0.00,meteohub,2013-07-05 06:13:00,
2013-07-05 02:18:00,72.3,68.5,30.19,NW,315,6.0,10.0,88,0.00,,,0.00,meteohub,2013-07-05 06:18:00,
2013-07-05 02:23:00,72.3,68.5,30.19,WNW,293,7.0,11.0,88,0.00,,,0.00,meteohub,2013-07-05 06:23:00,
2013-07-05 02:28:00,72.3,68.5,30.19,NW,315,8.0,11.0,88,0.00,,,0.00,meteohub,2013-07-05 06:28:00,
2013-07-05 02:33:00,72.3,68.5,30.19,NW,315,6.0,10.0,88,0.00,,,0.00,meteohub,2013-07-05 06:33:00,
2013-07-05 02:39:00,72.3,68.5,30.19,NW,315,11.0,11.0,88,0.00,,,0.00,meteohub,2013-07-05 06:39:00,
2013-07-05 02:44:00,72.1,68.4,30.20,WNW,293,9.0,12.0,88,0.00,,,0.00,meteohub,2013-07-05 06:44:00,
2013-07-05 02:49:00,72.1,68.4,30.20,NW,315,4.0,12.0,88,0.00,,,0.00,meteohub,2013-07-05 06:49:00,
2013-07-05 02:54:00,72.1,68.4,30.20,NW,315,5.0,12.0,88,0.00,,,0.00,meteohub,2013-07-05 06:54:00,
2013-07-05 02:59:00,72.1,68.4,30.20,West,270,3.0,9.0,88,0.00,,,0.00,meteohub,2013-07-05 06:59:00,
2013-07-05 03:04:00,72.1,68.4,30.19,NNW,338,6.0,9.0,88,0.00,,,0.00,meteohub,2013-07-05 07:04:00,
2013-07-05 03:09:00,72.1,68.4,30.19,NNW,338,6.0,9.0,88,0.00,,,0.00,meteohub,2013-07-05 07:09:00,
2013-07-05 03:14:00,72.1,68.4,30.19,NNW,338,7.0,9.0,88,0.00,,,0.00,meteohub,2013-07-05 07:14:00,
2013-07-05 03:19:00,72.1,68.4,30.19,NW,315,7.0,7.0,88,0.00,,,0.00,meteohub,2013-07-05 07:19:00,
2013-07-05 03:25:00,72.1,68.4,30.19,NW,315,10.0,10.0,88,0.00,,,0.00,meteohub,2013-07-05 07:25:00,
2013-07-05 03:30:00,72.1,68.4,30.19,NW,315,6.0,10.0,88,0.00,,,0.00,meteohub,2013-07-05 07:30:00,
2013-07-05 03:35:00,72.0,68.2,30.19,NW,315,11.0,11.0,88,0.00,,,0.00,meteohub,2013-07-05 07:35:00,
2013-07-05 03:40:00,72.0,68.2,30.19,NW,315,12.0,12.0,88,0.00,,,0.00,meteohub,2013-07-05 07:40:00,
2013-07-05 03:45:00,72.0,68.2,30.19,NW,315,10.0,12.0,88,0.00,,,0.00,meteohub,2013-07-05 07:45:00,
2013-07-05 03:51:00,71.8,68.0,30.19,NW,315,10.0,12.0,88,0.00,,,0.00,meteohub,2013-07-05 07:51:00,
2013-07-05 03:56:00,71.8,68.0,30.19,NW,315,12.0,12.0,88,0.00,,,0.00,meteohub,2013-07-05 07:56:00,
2013-07-05 04:01:00,71.8,68.0,30.19,NNW,338,13.0,13.0,88,0.00,,,0.00,meteohub,2013-07-05 08:01:00,
2013-07-05 04:06:00,71.6,67.8,30.19,NW,315,8.0,13.0,88,0.00,,,0.00,meteohub,2013-07-05 08:06:00,
2013-07-05 04:11:00,71.8,68.0,30.19,NW,315,10.0,13.0,88,0.00,,,0.00,meteohub,2013-07-05 08:11:00,
2013-07-05 04:17:00,71.6,67.8,30.19,NW,315,11.0,13.0,88,0.00,,,0.00,meteohub,2013-07-05 08:17:00,
2013-07-05 04:22:00,71.6,68.2,30.19,NW,315,9.0,11.0,89,0.00,,,0.00,meteohub,2013-07-05 08:22:00,
2013-07-05 04:27:00,71.6,68.2,30.17,North,0,11.0,11.0,89,0.00,,,0.00,meteohub,2013-07-05 08:27:00,
2013-07-05 04:32:00,71.8,68.4,30.17,NW,315,13.0,13.0,89,0.00,,,0.00,meteohub,2013-07-05 08:32:00,
2013-07-05 04:37:00,71.8,68.4,30.17,NW,315,11.0,13.0,89,0.00,,,0.00,meteohub,2013-07-05 08:37:00,
2013-07-05 04:42:00,71.8,68.4,30.17,NNW,338,7.0,13.0,89,0.00,,,0.00,meteohub,2013-07-05 08:42:00,
2013-07-05 04:47:00,71.6,68.2,30.18,NW,315,8.0,13.0,89,0.00,,,0.00,meteohub,2013-07-05 08:47:00,
2013-07-05 04:52:00,71.6,68.2,30.18,WNW,293,5.0,12.0,89,0.00,,,0.00,meteohub,2013-07-05 08:52:00,
2013-07-05 04:57:00,71.8,68.4,30.18,NW,315,15.0,15.0,89,0.00,,,0.00,meteohub,2013-07-05 08:57:00,
2013-07-05 05:02:00,71.6,68.2,30.18,NW,315,11.0,11.0,89,0.00,,,0.00,meteohub,2013-07-05 09:02:00,
2013-07-05 05:07:00,71.8,68.4,30.19,NW,315,12.0,15.0,89,0.00,,,0.00,meteohub,2013-07-05 09:07:00,
2013-07-05 05:12:00,72.0,68.5,30.19,NW,315,12.0,15.0,89,0.00,,,0.00,meteohub,2013-07-05 09:12:00,
2013-07-05 05:17:00,71.8,68.4,30.19,WNW,293,8.0,15.0,89,0.00,,,0.00,meteohub,2013-07-05 09:17:00,
2013-07-05 05:23:00,71.8,68.4,30.20,WNW,293,12.0,15.0,89,0.00,,,0.00,meteohub,2013-07-05 09:23:00,
2013-07-05 05:28:00,72.0,68.5,30.20,NW,315,12.0,13.0,89,0.00,,,0.00,meteohub,2013-07-05 09:28:00,
2013-07-05 05:33:00,71.8,68.4,30.20,NW,315,13.0,13.0,89,0.00,,,0.00,meteohub,2013-07-05 09:33:00,
2013-07-05 05:38:00,72.1,68.7,30.20,NW,315,7.0,12.0,89,0.00,,,0.00,meteohub,2013-07-05 09:38:00,
2013-07-05 05:43:00,72.0,68.5,30.20,NW,315,7.0,13.0,89,0.00,,,0.00,meteohub,2013-07-05 09:43:00,
2013-07-05 05:48:00,71.8,68.4,30.20,NW,315,9.0,13.0,89,0.00,,,0.00,meteohub,2013-07-05 09:48:00,
2013-07-05 05:54:00,72.0,68.9,30.20,WNW,293,13.0,13.0,90,0.00,,,0.00,meteohub,2013-07-05 09:54:00,
2013-07-05 05:59:00,72.1,69.1,30.20,NW,315,10.0,11.0,90,0.00,,,0.00,meteohub,2013-07-05 09:59:00,
2013-07-05 06:05:00,72.0,68.9,30.20,NNW,338,7.0,13.0,90,0.00,,,0.00,meteohub,2013-07-05 10:05:00,
2013-07-05 06:10:00,72.0,68.9,30.20,NNW,338,7.0,15.0,90,0.00,,,0.00,meteohub,2013-07-05 10:10:00,
2013-07-05 06:15:00,72.3,68.9,30.20,NNW,338,11.0,15.0,89,0.00,,,0.00,meteohub,2013-07-05 10:15:00,
2013-07-05 06:21:00,72.3,68.9,30.20,WNW,293,9.0,12.0,89,0.00,,,0.00,meteohub,2013-07-05 10:21:00,
2013-07-05 06:27:00,72.5,69.1,30.20,NW,315,10.0,12.0,89,0.00,,,0.00,meteohub,2013-07-05 10:27:00,
2013-07-05 06:33:00,72.3,68.9,30.20,NW,315,8.0,12.0,89,0.00,,,0.00,meteohub,2013-07-05 10:33:00,
2013-07-05 06:38:00,72.3,68.9,30.20,NW,315,10.0,12.0,89,0.00,,,0.00,meteohub,2013-07-05 10:38:00,
2013-07-05 06:43:00,72.5,69.1,30.20,NNW,338,6.0,11.0,89,0.00,,,0.00,meteohub,2013-07-05 10:43:00,
2013-07-05 06:49:00,72.3,68.9,30.20,NW,315,9.0,10.0,89,0.00,,,0.00,meteohub,2013-07-05 10:49:00,
2013-07-05 06:54:00,72.5,69.1,30.20,WNW,293,8.0,11.0,89,0.00,,,0.00,meteohub,2013-07-05 10:54:00,
2013-07-05 06:59:00,72.7,69.3,30.20,NNW,338,9.0,14.0,89,0.00,,,0.00,meteohub,2013-07-05 10:59:00,
2013-07-05 07:04:00,72.9,69.4,30.21,NW,315,12.0,14.0,89,0.00,,,0.00,meteohub,2013-07-05 11:04:00,
2013-07-05 07:10:00,73.0,69.6,30.21,NW,315,14.0,14.0,89,0.00,,,0.00,meteohub,2013-07-05 11:10:00,
2013-07-05 07:15:00,73.0,69.6,30.21,NW,315,9.0,14.0,89,0.00,,,0.00,meteohub,2013-07-05 11:15:00,
2013-07-05 07:21:00,73.4,70.0,30.21,NW,315,9.0,14.0,89,0.00,,,0.00,meteohub,2013-07-05 11:21:00,
2013-07-05 07:26:00,73.6,70.2,30.20,NNW,338,11.0,14.0,89,0.00,,,0.00,meteohub,2013-07-05 11:26:00,
2013-07-05 07:31:00,73.8,70.3,30.20,NW,315,9.0,13.0,89,0.00,,,0.00,meteohub,2013-07-05 11:31:00,
2013-07-05 07:36:00,73.8,70.3,30.20,NW,315,11.0,13.0,89,0.00,,,0.00,meteohub,2013-07-05 11:36:00,
2013-07-05 07:41:00,73.8,70.3,30.20,West,270,6.0,11.0,89,0.00,,,0.00,meteohub,2013-07-05 11:41:00,
2013-07-05 07:46:00,73.9,70.5,30.21,NNW,338,9.0,11.0,89,0.00,,,0.00,meteohub,2013-07-05 11:46:00,
2013-07-05 07:52:00,73.9,70.5,30.21,WNW,293,10.0,12.0,89,0.00,,,0.00,meteohub,2013-07-05 11:52:00,
2013-07-05 07:57:00,74.1,70.7,30.21,NW,315,12.0,12.0,89,0.00,,,0.00,meteohub,2013-07-05 11:57:00,
2013-07-05 08:02:00,73.9,70.2,30.21,NW,315,10.0,12.0,88,0.00,,,0.00,meteohub,2013-07-05 12:02:00,
2013-07-05 08:07:00,73.9,70.2,30.22,WNW,293,9.0,12.0,88,0.00,,,0.00,meteohub,2013-07-05 12:07:00,
2013-07-05 08:12:00,74.3,70.5,30.22,NW,315,9.0,12.0,88,0.00,,,0.00,meteohub,2013-07-05 12:12:00,
2013-07-05 08:17:00,74.3,70.5,30.22,WNW,293,7.0,10.0,88,0.00,,,0.00,meteohub,2013-07-05 12:17:00,
2013-07-05 08:22:00,74.3,70.5,30.22,NW,315,11.0,11.0,88,0.00,,,0.00,meteohub,2013-07-05 12:22:00,
2013-07-05 08:27:00,74.5,70.7,30.21,NW,315,7.0,11.0,88,0.00,,,0.00,meteohub,2013-07-05 12:27:00,
2013-07-05 08:32:00,74.7,70.9,30.21,NW,315,14.0,14.0,88,0.00,,,0.00,meteohub,2013-07-05 12:32:00,
2013-07-05 08:37:00,74.7,70.9,30.21,West,270,6.0,14.0,88,0.00,,,0.00,meteohub,2013-07-05 12:37:00,
2013-07-05 08:42:00,75.0,71.2,30.21,NW,315,4.0,14.0,88,0.00,,,0.00,meteohub,2013-07-05 12:42:00,
2013-07-05 08:47:00,74.8,71.1,30.22,WNW,293,8.0,14.0,88,0.00,,,0.00,meteohub,2013-07-05 12:47:00,
2013-07-05 08:52:00,74.8,71.1,30.22,NW,315,7.0,10.0,88,0.00,,,0.00,meteohub,2013-07-05 12:52:00,
2013-07-05 08:57:00,75.2,71.4,30.22,NW,315,8.0,10.0,88,0.00,,,0.00,meteohub,2013-07-05 12:57:00,
2013-07-05 09:02:00,75.2,71.1,30.22,WNW,293,9.0,11.0,87,0.00,,,0.00,meteohub,2013-07-05 13:02:00,
2013-07-05 09:07:00,75.2,71.1,30.22,NW,315,10.0,14.0,87,0.00,,,0.00,meteohub,2013-07-05 13:07:00,
2013-07-05 09:12:00,75.4,71.2,30.22,NNW,338,8.0,14.0,87,0.00,,,0.00,meteohub,2013-07-05 13:12:00,
2013-07-05 09:17:00,75.2,71.1,30.22,NW,315,9.0,14.0,87,0.00,,,0.00,meteohub,2013-07-05 13:17:00,
2013-07-05 09:22:00,75.4,71.2,30.22,NW,315,7.0,10.0,87,0.00,,,0.00,meteohub,2013-07-05 13:22:00,
2013-07-05 09:27:00,75.7,71.6,30.21,WNW,293,11.0,12.0,87,0.00,,,0.00,meteohub,2013-07-05 13:27:00,
2013-07-05 09:32:00,75.7,71.2,30.21,West,270,8.0,12.0,86,0.00,,,0.00,meteohub,2013-07-05 13:32:00,
2013-07-05 09:37:00,75.7,71.2,30.21,NW,315,12.0,12.0,86,0.00,,,0.00,meteohub,2013-07-05 13:37:00,
2013-07-05 09:42:00,75.9,71.8,30.20,NW,315,8.0,12.0,87,0.00,,,0.00,meteohub,2013-07-05 13:42:00,
2013-07-05 09:48:00,75.9,71.8,30.20,NNW,338,13.0,13.0,87,0.00,,,0.00,meteohub,2013-07-05 13:48:00,
2013-07-05 09:53:00,76.1,71.6,30.20,NW,315,13.0,13.0,86,0.00,,,0.00,meteohub,2013-07-05 13:53:00,
2013-07-05 09:59:00,76.3,71.8,30.20,WNW,293,14.0,14.0,86,0.00,,,0.00,meteohub,2013-07-05 13:59:00,
2013-07-05 10:04:00,76.3,71.8,30.19,NW,315,14.0,14.0,86,0.00,,,0.00,meteohub,2013-07-05 14:04:00,
2013-07-05 10:09:00,76.6,72.1,30.19,WSW,248,7.0,14.0,86,0.00,,,0.00,meteohub,2013-07-05 14:09:00,
2013-07-05 10:15:00,76.8,72.3,30.19,NW,315,10.0,15.0,86,0.00,,,0.00,meteohub,2013-07-05 14:15:00,
2013-07-05 10:20:00,76.8,72.0,30.19,WSW,248,13.0,15.0,85,0.00,,,0.00,meteohub,2013-07-05 14:20:00,
2013-07-05 10:26:00,77.2,72.3,30.20,NW,315,10.0,15.0,85,0.00,,,0.00,meteohub,2013-07-05 14:26:00,
2013-07-05 10:31:00,77.0,72.1,30.20,West,270,9.0,15.0,85,0.00,,,0.00,meteohub,2013-07-05 14:31:00,
2013-07-05 10:36:00,77.2,72.3,30.20,SE,135,21.0,21.0,85,0.00,,,0.00,meteohub,2013-07-05 14:36:00,
2013-07-05 10:41:00,77.4,72.5,30.20,WSW,248,14.0,21.0,85,0.00,,,0.00,meteohub,2013-07-05 14:41:00,
2013-07-05 10:46:00,77.5,72.7,30.21,North,0,11.0,21.0,85,0.00,,,0.00,meteohub,2013-07-05 14:46:00,
2013-07-05 10:52:00,77.7,72.5,30.21,NNW,338,12.0,21.0,84,0.00,,,0.00,meteohub,2013-07-05 14:52:00,
2013-07-05 10:57:00,78.3,73.0,30.21,WNW,293,14.0,16.0,84,0.00,,,0.00,meteohub,2013-07-05 14:57:00,
2013-07-05 11:02:00,78.1,72.9,30.21,NW,315,15.0,16.0,84,0.00,,,0.00,meteohub,2013-07-05 15:02:00,
2013-07-05 11:08:00,78.3,73.0,30.20,NNW,338,14.0,16.0,84,0.00,,,0.00,meteohub,2013-07-05 15:08:00,
2013-07-05 11:14:00,78.6,73.4,30.20,NW,315,15.0,17.0,84,0.00,,,0.00,meteohub,2013-07-05 15:14:00,
2013-07-05 11:19:00,78.6,73.0,30.20,West,270,10.0,17.0,83,0.00,,,0.00,meteohub,2013-07-05 15:19:00,
2013-07-05 11:24:00,79.0,73.4,30.20,NW,315,13.0,19.0,83,0.00,,,0.00,meteohub,2013-07-05 15:24:00,
2013-07-05 11:29:00,79.2,73.6,30.20,NNW,338,19.0,19.0,83,0.00,,,0.00,meteohub,2013-07-05 15:29:00,
2013-07-05 11:34:00,79.0,73.0,30.20,NW,315,14.0,19.0,82,0.00,,,0.00,meteohub,2013-07-05 15:34:00,
2013-07-05 11:40:00,79.3,73.4,30.20,NW,315,17.0,19.0,82,0.00,,,0.00,meteohub,2013-07-05 15:40:00,
2013-07-05 11:41:00,79.3,73.4,30.20,NW,315,21.0,21.0,82,0.00,,,0.00,meteohub,2013-07-05 15:41:00,
2013-07-05 11:46:00,79.2,73.2,30.19,NNW,338,9.0,23.0,82,0.00,,,0.00,meteohub,2013-07-05 15:46:00,
2013-07-05 11:51:00,79.2,72.9,30.19,West,270,24.0,26.0,81,0.00,,,0.00,meteohub,2013-07-05 15:51:00,
2013-07-05 11:56:00,79.0,73.0,30.19,NW,315,13.0,26.0,82,0.00,,,0.00,meteohub,2013-07-05 15:56:00,
2013-07-05 12:01:00,79.2,73.2,30.19,NNW,338,13.0,26.0,82,0.00,,,0.00,meteohub,2013-07-05 16:01:00,
2013-07-05 12:07:00,79.3,73.0,30.19,NW,315,14.0,24.0,81,0.00,,,0.00,meteohub,2013-07-05 16:07:00,
2013-07-05 12:12:00,79.3,73.0,30.19,NW,315,14.0,15.0,81,0.00,,,0.00,meteohub,2013-07-05 16:12:00,
2013-07-05 12:17:00,79.7,73.0,30.19,WNW,293,14.0,14.0,80,0.00,,,0.00,meteohub,2013-07-05 16:17:00,
2013-07-05 12:22:00,79.7,73.0,30.19,WNW,293,12.0,21.0,80,0.00,,,0.00,meteohub,2013-07-05 16:22:00,
2013-07-05 12:27:00,80.1,73.4,30.20,NW,315,20.0,21.0,80,0.00,,,0.00,meteohub,2013-07-05 16:27:00,
2013-07-05 12:32:00,79.9,73.2,30.20,NW,315,20.0,21.0,80,0.00,,,0.00,meteohub,2013-07-05 16:32:00,
2013-07-05 12:37:00,80.2,73.6,30.20,WNW,293,14.0,20.0,80,0.00,,,0.00,meteohub,2013-07-05 16:37:00,
2013-07-05 12:42:00,80.1,73.0,30.18,NW,315,16.0,20.0,79,0.00,,,0.00,meteohub,2013-07-05 16:42:00,
2013-07-05 12:47:00,80.4,73.2,30.18,WNW,293,15.0,20.0,79,0.00,,,0.00,meteohub,2013-07-05 16:47:00,
2013-07-05 12:53:00,80.4,73.2,30.18,NW,315,13.0,18.0,79,0.00,,,0.00,meteohub,2013-07-05 16:53:00,
2013-07-05 12:58:00,80.8,73.2,30.18,NW,315,14.0,21.0,78,0.00,,,0.00,meteohub,2013-07-05 16:58:00,
2013-07-05 13:03:00,81.0,73.8,30.18,WNW,293,15.0,21.0,79,0.00,,,0.00,meteohub,2013-07-05 17:03:00,
2013-07-05 13:08:00,81.3,73.8,30.18,NW,315,15.0,16.0,78,0.00,,,0.00,meteohub,2013-07-05 17:08:00,
2013-07-05 13:14:00,81.5,73.9,30.18,NW,315,12.0,16.0,78,0.00,,,0.00,meteohub,2013-07-05 17:14:00,
2013-07-05 13:19:00,81.9,73.9,30.18,NW,315,12.0,15.0,77,0.00,,,0.00,meteohub,2013-07-05 17:19:00,
2013-07-05 13:24:00,82.0,74.1,30.18,North,0,9.0,15.0,77,0.00,,,0.00,meteohub,2013-07-05 17:24:00,
2013-07-05 13:25:00,82.2,74.3,30.18,NNW,338,13.0,15.0,77,0.00,,,0.00,meteohub,2013-07-05 17:25:00,
2013-07-05 13:31:00,82.2,74.3,30.18,ESE,113,8.0,15.0,77,0.00,,,0.00,meteohub,2013-07-05 17:31:00,
2013-07-05 13:36:00,82.9,74.7,30.18,NW,315,15.0,15.0,76,0.00,,,0.00,meteohub,2013-07-05 17:36:00,
2013-07-05 13:41:00,82.8,74.5,30.18,NW,315,9.0,15.0,76,0.00,,,0.00,meteohub,2013-07-05 17:41:00,
2013-07-05 13:46:00,82.9,74.7,30.17,NNW,338,13.0,15.0,76,0.00,,,0.00,meteohub,2013-07-05 17:46:00,
2013-07-05 13:51:00,83.1,74.8,30.17,NNW,338,11.0,15.0,76,0.00,,,0.00,meteohub,2013-07-05 17:51:00,
2013-07-05 13:57:00,83.3,74.5,30.17,NW,315,11.0,18.0,75,0.00,,,0.00,meteohub,2013-07-05 17:57:00,
2013-07-05 14:02:00,83.1,73.9,30.17,NW,315,18.0,18.0,74,0.00,,,0.00,meteohub,2013-07-05 18:02:00,
2013-07-05 14:07:00,83.3,74.1,30.19,NW,315,15.0,18.0,74,0.00,,,0.00,meteohub,2013-07-05 18:07:00,
2013-07-05 14:12:00,83.5,74.3,30.19,WNW,293,11.0,18.0,74,0.00,,,0.00,meteohub,2013-07-05 18:12:00,
2013-07-05 14:17:00,84.0,74.8,30.19,NW,315,8.0,18.0,74,0.00,,,0.00,meteohub,2013-07-05 18:17:00,
2013-07-05 14:22:00,84.7,75.9,30.19,West,270,10.0,16.0,75,0.00,,,0.00,meteohub,2013-07-05 18:22:00,
2013-07-05 14:27:00,85.3,75.2,30.17,NW,315,14.0,14.0,72,0.00,,,0.00,meteohub,2013-07-05 18:27:00,
2013-07-05 14:32:00,85.5,75.4,30.17,NW,315,14.0,14.0,72,0.00,,,0.00,meteohub,2013-07-05 18:32:00,
2013-07-05 14:37:00,85.8,75.7,30.17,West,270,9.0,14.0,72,0.00,,,0.00,meteohub,2013-07-05 18:37:00,
2013-07-05 14:42:00,86.0,75.6,30.17,WNW,293,13.0,14.0,71,0.00,,,0.00,meteohub,2013-07-05 18:42:00,
2013-07-05 14:47:00,86.2,75.7,30.17,West,270,12.0,14.0,71,0.00,,,0.00,meteohub,2013-07-05 18:47:00,
2013-07-05 14:52:00,86.2,75.2,30.17,NW,315,11.0,13.0,70,0.00,,,0.00,meteohub,2013-07-05 18:52:00,
2013-07-05 14:57:00,86.5,76.5,30.17,West,270,7.0,13.0,72,0.00,,,0.00,meteohub,2013-07-05 18:57:00,
2013-07-05 15:02:00,86.7,76.6,30.16,West,270,4.0,12.0,72,0.00,,,0.00,meteohub,2013-07-05 19:02:00,
2013-07-05 15:08:00,87.3,77.2,30.16,SW,225,10.0,11.0,72,0.00,,,0.00,meteohub,2013-07-05 19:08:00,
2013-07-05 15:13:00,87.4,76.8,30.16,WSW,248,11.0,11.0,71,0.00,,,0.00,meteohub,2013-07-05 19:13:00,
2013-07-05 15:18:00,87.4,76.8,30.16,WSW,248,10.0,13.0,71,0.00,,,0.00,meteohub,2013-07-05 19:18:00,
2013-07-05 15:23:00,87.6,77.0,30.16,WSW,248,9.0,13.0,71,0.00,,,0.00,meteohub,2013-07-05 19:23:00,
2013-07-05 15:31:00,87.8,76.8,30.16,WSW,248,11.0,13.0,70,0.00,,,0.00,meteohub,2013-07-05 19:31:00,
2013-07-05 15:34:00,87.6,76.6,30.16,WSW,248,12.0,13.0,70,0.00,,,0.00,meteohub,2013-07-05 19:34:00,
2013-07-05 15:39:00,88.0,76.5,30.16,WSW,248,12.0,13.0,69,0.00,,,0.00,meteohub,2013-07-05 19:39:00,
2013-07-05 15:45:00,87.8,76.3,30.15,SW,225,10.0,12.0,69,0.00,,,0.00,meteohub,2013-07-05 19:45:00,
2013-07-05 15:50:00,88.0,76.1,30.15,WSW,248,16.0,16.0,68,0.00,,,0.00,meteohub,2013-07-05 19:50:00,
2013-07-05 15:55:00,88.2,76.3,30.15,WSW,248,12.0,16.0,68,0.00,,,0.00,meteohub,2013-07-05 19:55:00,
2013-07-05 16:00:00,88.7,76.3,30.15,West,270,20.0,20.0,67,0.00,,,0.00,meteohub,2013-07-05 20:00:00,
2013-07-05 16:06:00,88.9,76.5,30.14,NW,315,5.0,20.0,67,0.00,,,0.00,meteohub,2013-07-05 20:06:00,
2013-07-05 16:11:00,89.4,76.6,30.14,West,270,16.0,20.0,66,0.00,,,0.00,meteohub,2013-07-05 20:11:00,
2013-07-05 16:16:00,89.1,75.7,30.14,WSW,248,12.0,20.0,65,0.00,,,0.00,meteohub,2013-07-05 20:16:00,
2013-07-05 16:17:00,89.1,75.7,30.14,WSW,248,12.0,20.0,65,0.00,,,0.00,meteohub,2013-07-05 20:17:00,
2013-07-05 16:22:00,89.1,76.3,30.14,West,270,13.0,16.0,66,0.00,,,0.00,meteohub,2013-07-05 20:22:00,
2013-07-05 16:27:00,88.9,75.6,30.14,SW,225,13.0,20.0,65,0.00,,,0.00,meteohub,2013-07-05 20:27:00,
2013-07-05 16:32:00,89.1,75.7,30.14,NW,315,12.0,21.0,65,0.00,,,0.00,meteohub,2013-07-05 20:32:00,
2013-07-05 16:37:00,89.4,76.6,30.14,WNW,293,13.0,21.0,66,0.00,,,0.00,meteohub,2013-07-05 20:37:00,
2013-07-05 16:42:00,89.4,76.1,30.14,WSW,248,12.0,21.0,65,0.00,,,0.00,meteohub,2013-07-05 20:42:00,
2013-07-05 16:47:00,88.9,75.6,30.13,West,270,13.0,14.0,65,0.00,,,0.00,meteohub,2013-07-05 20:47:00,
2013-07-05 16:52:00,88.7,75.9,30.13,WSW,248,10.0,14.0,66,0.00,,,0.00,meteohub,2013-07-05 20:52:00,
2013-07-05 16:57:00,89.1,75.7,30.13,WSW,248,21.0,21.0,65,0.00,,,0.00,meteohub,2013-07-05 20:57:00,
2013-07-05 17:02:00,89.1,75.7,30.13,SW,225,13.0,21.0,65,0.00,,,0.00,meteohub,2013-07-05 21:02:00,
2013-07-05 17:08:00,89.1,75.7,30.13,WSW,248,11.0,21.0,65,0.00,,,0.00,meteohub,2013-07-05 21:08:00,
2013-07-05 17:13:00,88.9,75.6,30.13,WSW,248,17.0,21.0,65,0.00,,,0.00,meteohub,2013-07-05 21:13:00,
2013-07-05 17:18:00,88.7,75.4,30.13,WSW,248,13.0,17.0,65,0.00,,,0.00,meteohub,2013-07-05 21:18:00,
2013-07-05 17:24:00,88.5,75.7,30.13,NW,315,14.0,17.0,66,0.00,,,0.00,meteohub,2013-07-05 21:24:00,
2013-07-05 17:29:00,88.7,75.9,30.13,West,270,15.0,17.0,66,0.00,,,0.00,meteohub,2013-07-05 21:29:00,
2013-07-05 17:34:00,88.5,75.7,30.13,SW,225,13.0,17.0,66,0.00,,,0.00,meteohub,2013-07-05 21:34:00,
2013-07-05 17:35:00,88.3,75.6,30.13,West,270,16.0,16.0,66,0.00,,,0.00,meteohub,2013-07-05 21:35:00,
2013-07-05 17:41:00,88.0,75.2,30.13,West,270,16.0,22.0,66,0.00,,,0.00,meteohub,2013-07-05 21:41:00,
2013-07-05 17:46:00,87.8,75.0,30.12,West,270,14.0,22.0,66,0.00,,,0.00,meteohub,2013-07-05 21:46:00,
2013-07-05 17:51:00,87.4,75.2,30.12,West,270,17.0,26.0,67,0.00,,,0.00,meteohub,2013-07-05 21:51:00,
2013-07-05 17:57:00,87.3,75.0,30.12,West,270,15.0,26.0,67,0.00,,,0.00,meteohub,2013-07-05 21:57:00,
2013-07-05 18:02:00,86.7,74.5,30.12,West,270,20.0,26.0,67,0.00,,,0.00,meteohub,2013-07-05 22:02:00,
2013-07-05 18:07:00,86.7,74.5,30.13,West,270,20.0,20.0,67,0.00,,,0.00,meteohub,2013-07-05 22:07:00,
2013-07-05 18:12:00,86.5,74.7,30.13,WNW,293,20.0,20.0,68,0.00,,,0.00,meteohub,2013-07-05 22:12:00,
2013-07-05 18:17:00,86.2,73.9,30.13,WSW,248,13.0,20.0,67,0.00,,,0.00,meteohub,2013-07-05 22:17:00,
2013-07-05 18:22:00,86.0,73.8,30.13,WSW,248,25.0,25.0,67,0.00,,,0.00,meteohub,2013-07-05 22:22:00,
2013-07-05 18:27:00,85.6,73.4,30.12,WNW,293,13.0,25.0,67,0.00,,,0.00,meteohub,2013-07-05 22:27:00,
2013-07-05 18:32:00,85.5,73.8,30.12,West,270,13.0,25.0,68,0.00,,,0.00,meteohub,2013-07-05 22:32:00,
2013-07-05 18:37:00,84.9,73.2,30.12,West,270,13.0,25.0,68,0.00,,,0.00,meteohub,2013-07-05 22:37:00,
2013-07-05 18:42:00,84.7,73.0,30.12,West,270,10.0,17.0,68,0.00,,,0.00,meteohub,2013-07-05 22:42:00,
2013-07-05 18:48:00,84.6,72.9,30.12,West,270,19.0,19.0,68,0.00,,,0.00,meteohub,2013-07-05 22:48:00,
2013-07-05 18:53:00,84.0,72.0,30.12,West,270,16.0,19.0,67,0.00,,,0.00,meteohub,2013-07-05 22:53:00,
2013-07-05 18:58:00,83.7,72.0,30.12,West,270,10.0,19.0,68,0.00,,,0.00,meteohub,2013-07-05 22:58:00,
2013-07-05 19:03:00,83.7,72.0,30.12,West,270,16.0,19.0,68,0.00,,,0.00,meteohub,2013-07-05 23:03:00,
2013-07-05 19:09:00,83.7,72.0,30.12,West,270,12.0,16.0,68,0.00,,,0.00,meteohub,2013-07-05 23:09:00,
2013-07-05 19:14:00,83.7,72.3,30.12,WNW,293,12.0,16.0,69,0.00,,,0.00,meteohub,2013-07-05 23:14:00,
2013-07-05 19:19:00,83.3,72.1,30.12,WNW,293,15.0,16.0,69,0.00,,,0.00,meteohub,2013-07-05 23:19:00,
2013-07-05 19:24:00,82.9,72.1,30.11,WSW,248,17.0,17.0,70,0.00,,,0.00,meteohub,2013-07-05 23:24:00,
2013-07-05 19:29:00,82.2,72.0,30.11,WSW,248,9.0,22.0,71,0.00,,,0.00,meteohub,2013-07-05 23:29:00,
2013-07-05 19:35:00,81.9,72.0,30.11,SW,225,10.0,22.0,72,0.00,,,0.00,meteohub,2013-07-05 23:35:00,
2013-07-05 19:40:00,81.5,72.0,30.11,WSW,248,13.0,16.0,73,0.00,,,0.00,meteohub,2013-07-05 23:40:00,
2013-07-05 19:45:00,81.3,72.3,30.11,East,90,10.0,16.0,74,0.00,,,0.00,meteohub,2013-07-05 23:45:00,
2013-07-05 19:51:00,80.6,71.6,30.11,WNW,293,10.0,16.0,74,0.00,,,0.00,meteohub,2013-07-05 23:51:00,
2013-07-05 19:56:00,80.1,71.8,30.11,West,270,12.0,13.0,76,0.00,,,0.00,meteohub,2013-07-05 23:56:00,
2013-07-05 20:01:00,79.7,71.4,30.11,West,270,13.0,13.0,76,0.00,,,0.00,meteohub,2013-07-06 00:01:00,
2013-07-05 20:07:00,79.0,71.1,30.11,NW,315,9.0,13.0,77,0.00,,,0.00,meteohub,2013-07-06 00:07:00,
2013-07-05 20:12:00,78.8,71.1,30.11,West,270,8.0,15.0,77,0.00,,,0.00,meteohub,2013-07-06 00:12:00,
2013-07-05 20:17:00,78.4,71.1,30.11,NW,315,6.0,17.0,78,0.00,,,0.00,meteohub,2013-07-06 00:17:00,
2013-07-05 20:22:00,78.1,70.7,30.11,West,270,8.0,17.0,78,0.00,,,0.00,meteohub,2013-07-06 00:22:00,
2013-07-05 20:27:00,77.9,70.9,30.10,West,270,12.0,17.0,79,0.00,,,0.00,meteohub,2013-07-06 00:27:00,
2013-07-05 20:32:00,77.4,70.3,30.10,West,270,12.0,14.0,79,0.00,,,0.00,meteohub,2013-07-06 00:32:00,
2013-07-05 20:37:00,77.2,70.5,30.10,WNW,293,11.0,17.0,80,0.00,,,0.00,meteohub,2013-07-06 00:37:00,
2013-07-05 20:42:00,77.0,70.3,30.10,WNW,293,13.0,17.0,80,0.00,,,0.00,meteohub,2013-07-06 00:42:00,
2013-07-05 20:47:00,76.8,70.2,30.11,NW,315,13.0,17.0,80,0.00,,,0.00,meteohub,2013-07-06 00:47:00,
2013-07-05 20:52:00,76.5,69.8,30.11,East,90,15.0,15.0,80,0.00,,,0.00,meteohub,2013-07-06 00:52:00,
2013-07-05 20:57:00,76.5,70.2,30.11,West,270,14.0,15.0,81,0.00,,,0.00,meteohub,2013-07-06 00:57:00,
2013-07-05 21:02:00,76.5,70.2,30.11,NW,315,3.0,15.0,81,0.00,,,0.00,meteohub,2013-07-06 01:02:00,
2013-07-05 21:07:00,76.3,70.0,30.11,ENE,68,4.0,15.0,81,0.00,,,0.00,meteohub,2013-07-06 01:07:00,
2013-07-05 21:12:00,75.9,70.0,30.11,West,270,11.0,14.0,82,0.00,,,0.00,meteohub,2013-07-06 01:12:00,
2013-07-05 21:18:00,75.9,70.0,30.11,NW,315,9.0,11.0,82,0.00,,,0.00,meteohub,2013-07-06 01:18:00,
2013-07-05 21:23:00,75.7,69.8,30.12,NW,315,8.0,11.0,82,0.00,,,0.00,meteohub,2013-07-06 01:23:00,
2013-07-05 21:28:00,75.4,69.4,30.12,NW,315,7.0,11.0,82,0.00,,,0.00,meteohub,2013-07-06 01:28:00,
2013-07-05 21:33:00,75.2,69.6,30.12,NW,315,10.0,13.0,83,0.00,,,0.00,meteohub,2013-07-06 01:33:00,
2013-07-05 21:39:00,75.2,69.6,30.12,WNW,293,6.0,13.0,83,0.00,,,0.00,meteohub,2013-07-06 01:39:00,
2013-07-05 21:44:00,75.2,69.6,30.12,WNW,293,8.0,13.0,83,0.00,,,0.00,meteohub,2013-07-06 01:44:00,
2013-07-05 21:49:00,75.0,69.4,30.12,NNE,23,4.0,13.0,83,0.00,,,0.00,meteohub,2013-07-06 01:49:00,
2013-07-05 21:54:00,74.8,69.3,30.12,NNW,338,5.0,13.0,83,0.00,,,0.00,meteohub,2013-07-06 01:54:00,
2013-07-05 21:55:00,74.7,69.1,30.12,NNE,23,4.0,8.0,83,0.00,,,0.00,meteohub,2013-07-06 01:55:00,
2013-07-05 22:00:00,74.5,69.3,30.12,NW,315,5.0,7.0,84,0.00,,,0.00,meteohub,2013-07-06 02:00:00,
2013-07-05 22:06:00,74.5,69.3,30.13,NW,315,7.0,9.0,84,0.00,,,0.00,meteohub,2013-07-06 02:06:00,
2013-07-05 22:11:00,74.5,69.3,30.13,NW,315,9.0,9.0,84,0.00,,,0.00,meteohub,2013-07-06 02:11:00,
2013-07-05 22:12:00,74.5,69.3,30.13,WSW,248,9.0,9.0,84,0.00,,,0.00,meteohub,2013-07-06 02:12:00,
2013-07-05 22:17:00,74.5,69.6,30.13,WNW,293,9.0,10.0,85,0.00,,,0.00,meteohub,2013-07-06 02:17:00,
2013-07-05 22:23:00,74.7,69.8,30.12,NNW,338,3.0,10.0,85,0.00,,,0.00,meteohub,2013-07-06 02:23:00,
2013-07-05 22:28:00,74.7,69.8,30.12,WNW,293,8.0,9.0,85,0.00,,,0.00,meteohub,2013-07-06 02:28:00,
2013-07-05 22:33:00,74.7,69.8,30.12,NW,315,7.0,9.0,85,0.00,,,0.00,meteohub,2013-07-06 02:33:00,
2013-07-05 22:38:00,74.3,69.4,30.12,WNW,293,8.0,8.0,85,0.00,,,0.00,meteohub,2013-07-06 02:38:00,
2013-07-05 22:43:00,74.1,69.3,30.12,NW,315,6.0,8.0,85,0.00,,,0.00,meteohub,2013-07-06 02:43:00,
2013-07-05 22:48:00,73.9,69.1,30.12,WNW,293,6.0,8.0,85,0.00,,,0.00,meteohub,2013-07-06 02:48:00,
2013-07-05 22:54:00,73.9,69.1,30.12,NW,315,11.0,11.0,85,0.00,,,0.00,meteohub,2013-07-06 02:54:00,
2013-07-05 22:59:00,73.8,68.9,30.12,WNW,293,9.0,9.0,85,0.00,,,0.00,meteohub,2013-07-06 02:59:00,
2013-07-05 23:04:00,73.8,68.9,30.13,North,0,7.0,11.0,85,0.00,,,0.00,meteohub,2013-07-06 03:04:00,
2013-07-05 23:09:00,73.8,68.9,30.13,North,0,7.0,12.0,85,0.00,,,0.00,meteohub,2013-07-06 03:09:00,
2013-07-05 23:14:00,73.9,69.4,30.13,NW,315,9.0,12.0,86,0.00,,,0.00,meteohub,2013-07-06 03:14:00,
2013-07-05 23:19:00,73.9,69.4,30.13,WSW,248,12.0,12.0,86,0.00,,,0.00,meteohub,2013-07-06 03:19:00,
2013-07-05 23:24:00,73.9,69.4,30.12,NW,315,9.0,11.0,86,0.00,,,0.00,meteohub,2013-07-06 03:24:00,
2013-07-05 23:30:00,73.9,69.4,30.12,NW,315,10.0,12.0,86,0.00,,,0.00,meteohub,2013-07-06 03:30:00,
2013-07-05 23:35:00,73.9,69.4,30.12,West,270,6.0,11.0,86,0.00,,,0.00,meteohub,2013-07-06 03:35:00,
2013-07-05 23:40:00,73.9,69.4,30.12,WNW,293,11.0,11.0,86,0.00,,,0.00,meteohub,2013-07-06 03:40:00,
2013-07-05 23:45:00,73.9,69.4,30.13,NW,315,10.0,11.0,86,0.00,,,0.00,meteohub,2013-07-06 03:45:00,
2013-07-05 23:50:00,73.8,69.3,30.13,NW,315,7.0,13.0,86,0.00,,,0.00,meteohub,2013-07-06 03:50:00,
2013-07-05 23:55:00,73.8,69.3,30.13,WNW,293,9.0,13.0,86,0.00,,,0.00,meteohub,2013-07-06 03:55:00,